createdAt,value
2022-12-12T00:00:35.761Z,61.78
2022-12-12T00:03:04.726Z,61.64
2022-12-12T00:05:31.760Z,61.75
2022-12-12T00:07:58.824Z,61.23
2022-12-12T00:10:25.726Z,61.55
2022-12-12T00:12:52.607Z,61.11
2022-12-12T00:15:19.548Z,61.63
2022-12-12T00:17:46.410Z,61.24
2022-12-12T00:20:13.307Z,61.10
2022-12-12T00:22:40.312Z,60.96
2022-12-12T00:25:08.372Z,61.27
2022-12-12T00:27:35.281Z,61.17
2022-12-12T00:30:02.192Z,60.70
2022-12-12T00:32:30.231Z,61.36
2022-12-12T00:34:57.155Z,61.19
2022-12-12T00:37:24.142Z,60.80
2022-12-12T00:39:51.195Z,60.86
2022-12-12T00:42:18.080Z,61.00
2022-12-12T00:44:44.941Z,61.14
2022-12-12T00:47:11.833Z,61.07
2022-12-12T00:49:38.698Z,60.94
2022-12-12T00:52:05.632Z,61.35
2022-12-12T00:54:32.587Z,60.87
2022-12-12T00:56:59.476Z,61.13
2022-12-12T00:59:26.399Z,61.46
2022-12-12T01:01:53.338Z,61.15
2022-12-12T01:04:20.278Z,61.06
2022-12-12T01:06:47.232Z,60.96
2022-12-12T01:09:14.416Z,60.96
2022-12-12T01:11:41.370Z,61.15
2022-12-12T01:14:08.349Z,60.99
2022-12-12T01:16:35.433Z,61.58
2022-12-12T01:19:02.379Z,60.71
2022-12-12T01:21:29.343Z,60.99
2022-12-12T01:23:56.268Z,61.01
2022-12-12T01:26:24.780Z,60.58
2022-12-12T01:28:52.440Z,60.73
2022-12-12T01:31:20.171Z,60.70
2022-12-12T01:33:47.355Z,60.54
2022-12-12T01:36:16.995Z,61.03
2022-12-12T01:38:45.981Z,61.08
2022-12-12T01:41:14.394Z,60.82
2022-12-12T01:43:41.276Z,60.89
2022-12-12T01:46:33.346Z,60.66
2022-12-12T01:49:24.370Z,60.83
2022-12-12T01:51:57.383Z,60.82
2022-12-12T01:54:30.277Z,60.76
2022-12-12T01:57:01.470Z,60.59
2022-12-12T01:59:28.735Z,60.97
2022-12-12T02:01:56.893Z,60.43
2022-12-12T02:04:24.942Z,61.00
2022-12-12T02:06:53.071Z,60.73
2022-12-12T02:09:21.090Z,60.74
2022-12-12T02:11:54.684Z,61.13
2022-12-12T02:14:30.597Z,61.01
2022-12-12T02:17:32.298Z,61.07
2022-12-12T02:20:24.332Z,61.03
2022-12-12T02:23:30.912Z,61.35
2022-12-12T02:26:50.102Z,61.27
2022-12-12T02:29:46.765Z,61.49
2022-12-12T02:32:51.415Z,61.04
2022-12-12T02:35:55.218Z,61.21
2022-12-12T02:38:39.974Z,61.53
2022-12-12T02:41:29.998Z,61.42
2022-12-12T02:44:30.856Z,61.59
2022-12-12T02:47:24.402Z,60.99
2022-12-12T02:50:02.844Z,61.80
2022-12-12T02:52:30.237Z,61.69
2022-12-12T02:54:57.312Z,61.61
2022-12-12T02:57:26.724Z,61.16
2022-12-12T03:00:02.129Z,61.55
2022-12-12T03:03:40.943Z,61.84
2022-12-12T03:06:41.306Z,61.67
2022-12-12T03:09:49.479Z,61.47
2022-12-12T03:12:35.009Z,61.73
2022-12-12T03:15:12.169Z,61.83
2022-12-12T03:18:00.149Z,61.62
2022-12-12T03:20:43.102Z,61.45
2022-12-12T03:23:19.321Z,60.86
2022-12-12T03:26:06.073Z,60.79
2022-12-12T03:28:45.560Z,61.06
2022-12-12T03:31:14.958Z,60.63
2022-12-12T03:33:57.086Z,60.98
2022-12-12T03:36:30.288Z,60.52
2022-12-12T03:39:06.140Z,60.32
2022-12-12T03:41:39.567Z,60.86
2022-12-12T03:44:17.979Z,60.45
2022-12-12T03:46:54.451Z,60.47
2022-12-12T03:49:34.635Z,60.47
2022-12-12T03:52:11.434Z,59.97
2022-12-12T03:54:49.244Z,59.98
2022-12-12T03:57:22.866Z,59.84
2022-12-12T04:00:01.315Z,59.43
2022-12-12T04:02:51.953Z,60.14
2022-12-12T04:06:01.865Z,59.61
2022-12-12T04:08:29.117Z,59.76
2022-12-12T04:11:26.046Z,59.30
2022-12-12T04:14:16.555Z,59.74
2022-12-12T04:16:46.823Z,59.63
2022-12-12T04:19:44.376Z,59.54
2022-12-12T04:22:38.870Z,59.27
2022-12-12T04:26:03.921Z,59.76
2022-12-12T04:28:34.028Z,59.45
2022-12-12T04:31:05.135Z,59.23
2022-12-12T04:33:45.926Z,59.13
2022-12-12T04:36:15.360Z,59.23
2022-12-12T04:38:45.358Z,59.68
2022-12-12T04:41:14.909Z,59.87
2022-12-12T04:43:43.558Z,60.13
2022-12-12T04:46:15.413Z,60.35
2022-12-12T04:48:54.750Z,60.21
2022-12-12T04:51:31.511Z,60.03
2022-12-12T04:54:08.879Z,59.91
2022-12-12T04:56:38.877Z,59.77
2022-12-12T04:59:07.621Z,59.98
2022-12-12T05:01:52.654Z,59.63
2022-12-12T05:04:28.856Z,59.47
2022-12-12T05:07:10.200Z,59.38
2022-12-12T05:09:37.684Z,59.68
2022-12-12T05:12:05.000Z,59.41
2022-12-12T05:14:32.194Z,59.06
2022-12-12T05:17:11.071Z,59.07
2022-12-12T05:19:37.980Z,59.07
2022-12-12T05:22:04.847Z,59.33
2022-12-12T05:24:31.997Z,59.26
2022-12-12T05:27:00.322Z,59.39
2022-12-12T05:29:27.198Z,58.97
2022-12-12T05:31:54.112Z,59.00
2022-12-12T05:34:20.995Z,59.11
2022-12-12T05:36:47.948Z,58.41
2022-12-12T05:39:15.011Z,58.58
2022-12-12T05:41:42.245Z,58.72
2022-12-12T05:44:09.171Z,58.48
2022-12-12T05:46:36.095Z,58.38
2022-12-12T05:49:03.147Z,58.63
2022-12-12T05:51:30.076Z,58.42
2022-12-12T05:53:56.992Z,58.17
2022-12-12T05:56:23.971Z,58.34
2022-12-12T05:58:50.858Z,58.52
2022-12-12T06:01:17.721Z,57.97
2022-12-12T06:03:44.677Z,58.11
2022-12-12T06:06:11.590Z,57.97
2022-12-12T06:08:38.494Z,58.12
2022-12-12T06:11:07.592Z,58.57
2022-12-12T06:13:34.851Z,58.21
2022-12-12T06:16:07.861Z,58.47
2022-12-12T06:18:34.816Z,58.09
2022-12-12T06:21:10.371Z,58.14
2022-12-12T06:23:39.731Z,58.02
2022-12-12T06:26:08.990Z,57.90
2022-12-12T06:28:37.555Z,58.08
2022-12-12T06:31:11.341Z,58.01
2022-12-12T06:33:40.106Z,57.85
2022-12-12T06:36:11.571Z,58.24
2022-12-12T06:38:39.371Z,58.05
2022-12-12T06:41:08.911Z,57.77
2022-12-12T06:43:36.016Z,58.23
2022-12-12T06:46:06.354Z,57.59
2022-12-12T06:48:34.363Z,57.63
2022-12-12T06:51:07.061Z,58.15
2022-12-12T06:53:34.087Z,57.73
2022-12-12T06:56:05.746Z,57.74
2022-12-12T06:58:32.600Z,57.92
2022-12-12T07:00:59.450Z,57.99
2022-12-12T07:03:26.321Z,57.96
2022-12-12T07:05:53.211Z,57.77
2022-12-12T07:08:20.272Z,57.75
2022-12-12T07:10:47.355Z,58.11
2022-12-12T07:13:14.373Z,58.14
2022-12-12T07:15:47.705Z,57.42
2022-12-12T07:18:16.128Z,58.13
2022-12-12T07:20:45.920Z,57.81
2022-12-12T07:23:14.005Z,57.93
2022-12-12T07:25:44.687Z,57.95
2022-12-12T07:28:13.571Z,58.09
2022-12-12T07:30:46.986Z,57.91
2022-12-12T07:33:16.680Z,57.80
2022-12-12T07:35:44.280Z,58.15
2022-12-12T07:38:11.779Z,57.93
2022-12-12T07:40:38.742Z,57.82
2022-12-12T07:43:05.710Z,57.95
2022-12-12T07:45:32.590Z,57.75
2022-12-12T07:47:59.603Z,58.11
2022-12-12T07:50:26.482Z,58.25
2022-12-12T07:52:53.359Z,58.29
2022-12-12T07:55:20.237Z,58.28
2022-12-12T07:57:47.110Z,58.21
2022-12-12T08:00:15.815Z,58.31
2022-12-12T08:02:42.673Z,58.28
2022-12-12T08:05:09.774Z,58.08
2022-12-12T08:07:36.720Z,58.39
2022-12-12T08:10:04.762Z,58.63
2022-12-12T08:12:33.326Z,58.50
2022-12-12T08:15:00.231Z,58.40
2022-12-12T08:17:27.319Z,58.59
2022-12-12T08:19:54.211Z,58.54
2022-12-12T08:22:21.172Z,58.52
2022-12-12T08:24:50.040Z,58.81
2022-12-12T08:27:17.014Z,58.85
2022-12-12T08:29:44.156Z,58.75
2022-12-12T08:32:11.041Z,58.84
2022-12-12T08:34:37.994Z,59.01
2022-12-12T08:37:05.223Z,58.82
2022-12-12T08:39:32.186Z,58.96
2022-12-12T08:41:59.071Z,58.99
2022-12-12T08:44:26.081Z,59.25
2022-12-12T08:46:53.074Z,59.53
2022-12-12T08:49:20.038Z,59.34
2022-12-12T08:51:46.901Z,59.40
2022-12-12T08:54:14.115Z,59.53
2022-12-12T08:56:41.054Z,59.56
2022-12-12T08:59:07.968Z,59.75
2022-12-12T09:01:35.049Z,59.53
2022-12-12T09:04:02.226Z,59.04
2022-12-12T09:06:29.144Z,59.60
2022-12-12T09:08:57.514Z,59.22
2022-12-12T09:11:25.149Z,59.29
2022-12-12T09:13:52.591Z,59.71
2022-12-12T09:16:20.392Z,59.47
2022-12-12T09:18:49.349Z,59.13
2022-12-12T09:21:17.231Z,59.64
2022-12-12T09:23:44.353Z,59.27
2022-12-12T09:26:11.597Z,58.86
2022-12-12T09:28:39.027Z,58.54
2022-12-12T09:31:08.066Z,58.33
2022-12-12T09:33:35.718Z,58.52
2022-12-12T09:36:06.970Z,58.62
2022-12-12T09:38:34.779Z,58.14
2022-12-12T09:41:12.907Z,58.54
2022-12-12T09:44:06.111Z,58.23
2022-12-12T09:46:38.720Z,58.08
2022-12-12T09:49:43.033Z,58.49
2022-12-12T09:52:30.632Z,57.90
2022-12-12T09:55:18.627Z,58.01
2022-12-12T09:58:04.992Z,57.71
2022-12-12T10:00:38.996Z,57.50
2022-12-12T10:03:17.221Z,57.68
2022-12-12T10:06:36.061Z,57.65
2022-12-12T10:09:32.524Z,57.72
2022-12-12T10:12:07.904Z,56.87
2022-12-12T10:14:51.184Z,56.92
2022-12-12T10:17:30.176Z,55.82
2022-12-12T10:20:24.537Z,56.11
2022-12-12T10:23:04.371Z,55.87
2022-12-12T10:25:52.453Z,55.67
2022-12-12T10:28:23.514Z,55.74
2022-12-12T10:31:12.676Z,56.30
2022-12-12T10:34:04.201Z,56.14
2022-12-12T10:37:18.741Z,56.08
2022-12-12T10:40:41.089Z,56.33
2022-12-12T10:43:33.940Z,56.46
2022-12-12T10:46:53.349Z,55.97
2022-12-12T10:49:23.355Z,55.52
2022-12-12T10:51:51.926Z,55.95
2022-12-12T10:54:24.185Z,56.01
2022-12-12T10:57:19.824Z,55.92
2022-12-12T10:59:53.256Z,55.54
2022-12-12T11:02:34.966Z,55.86
2022-12-12T11:05:22.621Z,55.74
2022-12-12T11:08:06.730Z,55.49
2022-12-12T11:10:36.792Z,55.82
2022-12-12T11:13:09.758Z,55.24
2022-12-12T11:16:13.892Z,55.44
2022-12-12T11:18:41.075Z,55.54
2022-12-12T11:21:14.407Z,55.91
2022-12-12T11:23:52.673Z,55.64
2022-12-12T11:26:21.766Z,55.86
2022-12-12T11:28:56.572Z,55.65
2022-12-12T11:31:26.561Z,55.61
2022-12-12T11:34:00.903Z,55.44
2022-12-12T11:36:34.666Z,55.83
2022-12-12T11:39:14.537Z,55.74
2022-12-12T11:41:57.530Z,55.91
2022-12-12T11:44:25.842Z,55.68
2022-12-12T11:46:52.935Z,54.99
2022-12-12T11:49:20.351Z,55.14
2022-12-12T11:51:48.106Z,54.76
2022-12-12T11:54:22.195Z,55.06
2022-12-12T11:57:06.881Z,55.01
2022-12-12T11:59:55.139Z,54.94
2022-12-12T12:02:51.424Z,55.15
2022-12-12T12:05:52.234Z,55.12
2022-12-12T12:08:41.972Z,54.96
2022-12-12T12:11:21.123Z,55.46
2022-12-12T12:13:58.018Z,55.46
2022-12-12T12:16:48.606Z,55.27
2022-12-12T12:19:40.436Z,55.27
2022-12-12T12:22:41.637Z,55.08
2022-12-12T12:25:35.691Z,55.48
2022-12-12T12:29:06.752Z,55.29
2022-12-12T12:32:02.799Z,55.73
2022-12-12T12:35:06.895Z,55.66
2022-12-12T12:38:26.608Z,55.41
2022-12-12T12:41:47.376Z,55.60
2022-12-12T12:44:35.067Z,55.37
2022-12-12T12:47:23.567Z,55.61
2022-12-12T12:50:13.623Z,55.80
2022-12-12T12:52:51.620Z,55.50
2022-12-12T12:55:24.012Z,55.74
2022-12-12T12:57:52.297Z,56.06
2022-12-12T13:00:24.288Z,56.01
2022-12-12T13:03:10.540Z,56.08
2022-12-12T13:05:57.956Z,55.72
2022-12-12T13:08:46.800Z,56.14
2022-12-12T13:11:37.194Z,56.06
2022-12-12T13:14:44.705Z,56.45
2022-12-12T13:17:21.975Z,56.54
2022-12-12T13:19:53.630Z,56.30
2022-12-12T13:22:49.990Z,56.86
2022-12-12T13:25:36.255Z,56.65
2022-12-12T13:28:12.328Z,56.37
2022-12-12T13:31:37.989Z,56.90
2022-12-12T13:34:15.490Z,57.04
2022-12-12T13:36:47.782Z,57.00
2022-12-12T13:39:35.171Z,56.71
2022-12-12T13:42:08.420Z,56.85
2022-12-12T13:44:49.579Z,56.62
2022-12-12T13:47:22.764Z,56.81
2022-12-12T13:50:08.435Z,57.10
2022-12-12T13:52:42.332Z,57.48
2022-12-12T13:55:12.726Z,57.40
2022-12-12T13:58:05.748Z,57.17
2022-12-12T14:00:40.081Z,57.73
2022-12-12T14:03:25.244Z,57.79
2022-12-12T14:05:54.326Z,57.44
2022-12-12T14:08:28.604Z,57.66
2022-12-12T14:11:03.045Z,57.81
2022-12-12T14:13:42.829Z,57.67
2022-12-12T14:16:16.854Z,57.43
2022-12-12T14:18:49.529Z,57.35
2022-12-12T14:21:19.477Z,57.74
2022-12-12T14:23:52.601Z,57.67
2022-12-12T14:26:45.454Z,57.35
2022-12-12T14:29:18.085Z,57.40
2022-12-12T14:31:56.184Z,57.61
2022-12-12T14:34:59.363Z,57.48
2022-12-12T14:38:22.585Z,57.68
2022-12-12T14:41:01.340Z,57.37
2022-12-12T14:43:36.056Z,57.64
2022-12-12T14:46:04.411Z,57.85
2022-12-12T14:48:33.075Z,57.71
2022-12-12T14:51:29.161Z,57.75
2022-12-12T14:53:59.242Z,57.69
2022-12-12T14:56:40.944Z,57.15
2022-12-12T14:59:28.700Z,57.42
2022-12-12T15:02:05.943Z,57.61
2022-12-12T15:04:38.712Z,57.45
2022-12-12T15:07:31.513Z,57.11
2022-12-12T15:09:58.757Z,57.68
2022-12-12T15:12:33.236Z,57.28
2022-12-12T15:15:00.378Z,57.78
2022-12-12T15:17:43.412Z,57.24
2022-12-12T15:20:26.384Z,57.39
2022-12-12T15:23:03.164Z,57.75
2022-12-12T15:25:45.213Z,57.28
2022-12-12T15:28:16.954Z,57.40
2022-12-12T15:30:45.513Z,57.07
2022-12-12T15:33:23.626Z,57.13
2022-12-12T15:36:01.756Z,57.28
2022-12-12T15:38:29.715Z,57.28
2022-12-12T15:40:59.561Z,57.19
2022-12-12T15:43:29.915Z,57.38
2022-12-12T15:46:13.900Z,56.97
2022-12-12T15:48:48.940Z,57.00
2022-12-12T15:51:24.318Z,56.75
2022-12-12T15:53:53.317Z,57.11
2022-12-12T15:56:20.083Z,56.96
2022-12-12T15:58:53.675Z,57.11
2022-12-12T16:01:26.395Z,57.09
2022-12-12T16:04:24.319Z,56.52
2022-12-12T16:06:51.713Z,56.01
2022-12-12T16:09:26.600Z,55.62
2022-12-12T16:11:58.223Z,55.37
2022-12-12T16:14:32.574Z,55.58
2022-12-12T16:17:24.902Z,55.65
2022-12-12T16:19:56.359Z,55.62
2022-12-12T16:22:55.981Z,55.26
2022-12-12T16:25:34.239Z,55.81
2022-12-12T16:28:10.371Z,55.67
2022-12-12T16:30:42.114Z,55.77
2022-12-12T16:33:32.623Z,55.68
2022-12-12T16:36:03.494Z,55.79
2022-12-12T16:38:31.153Z,55.71
2022-12-12T16:41:04.225Z,55.61
2022-12-12T16:43:31.197Z,55.55
2022-12-12T16:45:58.514Z,54.96
2022-12-12T16:48:32.485Z,55.29
2022-12-12T16:51:04.903Z,55.09
2022-12-12T16:53:32.573Z,55.88
2022-12-12T16:56:01.589Z,54.76
2022-12-12T16:58:28.690Z,54.71
2022-12-12T17:00:55.897Z,54.82
2022-12-12T17:03:23.776Z,54.60
2022-12-12T17:05:51.776Z,54.52
2022-12-12T17:08:19.884Z,54.64
2022-12-12T17:10:48.807Z,54.85
2022-12-12T17:13:19.875Z,54.45
2022-12-12T17:15:47.017Z,54.67
2022-12-12T17:18:13.984Z,54.51
2022-12-12T17:20:41.504Z,54.50
2022-12-12T17:23:27.510Z,54.53
2022-12-12T17:26:00.692Z,54.51
2022-12-12T17:28:29.743Z,54.65
2022-12-12T17:30:56.649Z,54.70
2022-12-12T17:33:23.524Z,54.68
2022-12-12T17:36:07.071Z,54.68
2022-12-12T17:38:34.542Z,54.97
2022-12-12T17:41:08.956Z,55.14
2022-12-12T17:43:37.193Z,55.18
2022-12-12T17:46:14.152Z,55.52
2022-12-12T17:48:47.192Z,55.88
2022-12-12T17:51:23.817Z,55.78
2022-12-12T17:53:52.584Z,56.16
2022-12-12T17:56:23.194Z,56.00
2022-12-12T17:58:50.813Z,56.38
2022-12-12T18:01:28.779Z,56.53
2022-12-12T18:03:56.456Z,56.05
2022-12-12T18:06:25.325Z,56.37
2022-12-12T18:08:53.455Z,56.42
2022-12-12T18:11:24.736Z,56.20
2022-12-12T18:13:53.852Z,56.24
2022-12-12T18:16:21.604Z,56.29
2022-12-12T18:18:51.305Z,56.36
2022-12-12T18:21:51.813Z,55.94
2022-12-12T18:24:10.934Z,56.09
2022-12-12T18:26:37.927Z,55.95
2022-12-12T18:29:07.347Z,56.13
2022-12-12T18:31:35.168Z,56.25
2022-12-12T18:34:02.559Z,56.31
2022-12-12T18:36:31.271Z,56.03
2022-12-12T18:39:01.025Z,56.13
2022-12-12T18:41:28.835Z,56.06
2022-12-12T18:43:56.151Z,56.53
2022-12-12T18:46:26.457Z,56.12
2022-12-12T18:48:53.376Z,55.92
2022-12-12T18:51:28.469Z,55.78
2022-12-12T18:54:02.161Z,55.98
2022-12-12T18:56:31.700Z,56.04
2022-12-12T18:59:01.035Z,55.63
2022-12-12T19:01:32.277Z,56.08
2022-12-12T19:04:04.623Z,55.89
2022-12-12T19:06:37.320Z,55.75
2022-12-12T19:09:05.630Z,56.09
2022-12-12T19:11:33.648Z,56.24
2022-12-12T19:14:00.555Z,55.90
2022-12-12T19:16:27.655Z,56.22
2022-12-12T19:18:54.603Z,56.33
2022-12-12T19:21:24.495Z,56.29
2022-12-12T19:23:52.119Z,55.95
2022-12-12T19:26:26.917Z,56.22
2022-12-12T19:29:05.281Z,56.12
2022-12-12T19:31:36.104Z,56.11
2022-12-12T19:34:05.367Z,56.08
2022-12-12T19:36:32.943Z,56.20
2022-12-12T19:39:04.809Z,56.05
2022-12-12T19:41:31.781Z,56.36
2022-12-12T19:44:01.659Z,56.30
2022-12-12T19:46:31.578Z,56.21
2022-12-12T19:49:05.582Z,56.43
2022-12-12T19:51:35.824Z,56.15
2022-12-12T19:54:10.738Z,56.41
2022-12-12T19:56:40.917Z,56.29
2022-12-12T19:59:10.366Z,56.29
2022-12-12T20:01:37.650Z,56.26
2022-12-12T20:04:18.374Z,56.44
2022-12-12T20:06:46.876Z,56.42
2022-12-12T20:09:18.479Z,56.22
2022-12-12T20:11:45.858Z,56.58
2022-12-12T20:14:16.870Z,56.58
2022-12-12T20:16:44.498Z,56.63
2022-12-12T20:19:12.324Z,56.41
2022-12-12T20:24:28.779Z,56.51
2022-12-12T20:26:55.993Z,56.73
2022-12-12T20:29:23.347Z,56.74
2022-12-12T20:31:50.303Z,56.77
2022-12-12T20:34:21.712Z,56.54
2022-12-12T20:36:50.158Z,56.58
2022-12-12T20:39:20.880Z,56.88
2022-12-12T20:41:49.671Z,56.66
2022-12-12T20:44:16.595Z,56.76
2022-12-12T20:46:46.400Z,56.69
2022-12-12T20:49:19.744Z,56.93
2022-12-12T20:51:56.557Z,56.61
2022-12-12T20:54:25.960Z,56.58
2022-12-12T20:56:55.928Z,56.37
2022-12-12T20:59:24.011Z,56.86
2022-12-12T21:01:51.597Z,56.71
2022-12-12T21:04:18.715Z,56.55
2022-12-12T21:06:50.961Z,56.84
2022-12-12T21:09:23.873Z,56.96
2022-12-12T21:11:57.664Z,56.83
2022-12-12T21:14:26.595Z,56.66
2022-12-12T21:16:53.963Z,56.71
2022-12-12T21:19:21.077Z,57.10
2022-12-12T21:21:47.965Z,56.94
2022-12-12T21:24:17.390Z,56.74
2022-12-12T21:26:45.286Z,56.75
2022-12-12T21:29:12.723Z,56.74
2022-12-12T21:31:50.356Z,56.92
2022-12-12T21:34:21.037Z,56.71
2022-12-12T21:36:51.823Z,56.60
2022-12-12T21:39:19.095Z,56.96
2022-12-12T21:41:46.027Z,56.81
2022-12-12T21:44:12.932Z,56.73
2022-12-12T21:46:42.028Z,56.61
2022-12-12T21:49:28.021Z,56.67
2022-12-12T21:52:01.143Z,56.83
2022-12-12T21:54:29.421Z,56.61
2022-12-12T21:56:58.469Z,57.02
2022-12-12T21:59:25.957Z,56.97
2022-12-12T22:01:58.549Z,56.84
2022-12-12T22:04:26.011Z,57.13
2022-12-12T22:06:53.000Z,57.05
2022-12-12T22:09:20.446Z,57.41
2022-12-12T22:11:50.595Z,57.20
2022-12-12T22:14:20.586Z,57.19
2022-12-12T22:16:47.643Z,56.78
2022-12-12T22:19:16.789Z,57.03
2022-12-12T22:21:46.960Z,56.73
2022-12-12T22:24:15.481Z,56.79
2022-12-12T22:26:46.138Z,56.20
2022-12-12T22:29:17.110Z,56.13
2022-12-12T22:31:45.117Z,56.25
2022-12-12T22:34:19.643Z,56.38
2022-12-12T22:36:47.502Z,56.18
2022-12-12T22:39:21.678Z,56.07
2022-12-12T22:41:50.027Z,55.92
2022-12-12T22:44:18.972Z,56.36
2022-12-12T22:46:47.429Z,56.11
2022-12-12T22:49:19.224Z,56.36
2022-12-12T22:51:47.101Z,56.19
2022-12-12T22:54:14.210Z,56.51
2022-12-12T22:56:41.878Z,56.28
2022-12-12T22:59:11.917Z,56.26
2022-12-12T23:01:39.511Z,56.35
2022-12-12T23:04:07.083Z,56.42
2022-12-12T23:06:36.602Z,56.73
2022-12-12T23:09:17.300Z,56.83
2022-12-12T23:11:45.454Z,56.79
2022-12-12T23:14:16.572Z,56.93
2022-12-12T23:16:44.503Z,56.90
2022-12-12T23:19:14.453Z,57.06
2022-12-12T23:21:41.350Z,57.00
2022-12-12T23:24:08.320Z,56.95
2022-12-12T23:26:36.686Z,56.76
2022-12-12T23:29:08.050Z,57.03
2022-12-12T23:31:37.361Z,57.00
2022-12-12T23:34:17.848Z,56.84
2022-12-12T23:36:44.791Z,57.17
2022-12-12T23:39:13.268Z,57.20
2022-12-12T23:41:40.709Z,56.88
2022-12-12T23:44:08.752Z,56.84
2022-12-12T23:46:36.356Z,56.83
2022-12-12T23:49:20.543Z,57.05
2022-12-12T23:51:57.105Z,57.34
2022-12-12T23:54:32.127Z,57.10
2022-12-12T23:56:59.916Z,57.00
2022-12-12T23:59:27.391Z,57.12
